Terminal Aerodrome Forecast
Issued by NWS Riverton, WY

Home | Current Version | Previous Version | Text Only | Print | Product List | Glossary On
Versions: 1 2 3 4 5 6 7 8 9 10 11 12
000
FTUS45 KRIW 282320
TAFRIW
TAF
KRIW 282320Z 2900/2924 10007KT P6SM SKC
     FM290200 16007KT P6SM SCT200
     FM291000 VRB06KT P6SM SCT100 BKN150
     FM292000 21012G18KT P6SM SCT080 BKN100=

USA.gov is the U.S. government's official web portal to all federal, state and local government web resources and services.